createdAt,value
2017-02-16T00:00:49.424Z,80.42
2017-02-16T00:02:02.574Z,80.52
2017-02-16T00:03:14.623Z,80.13
2017-02-16T00:04:27.228Z,80.03
2017-02-16T00:05:40.650Z,80.32
2017-02-16T00:06:53.803Z,80.13
2017-02-16T00:08:06.971Z,80.13
2017-02-16T00:09:20.158Z,80.22
2017-02-16T00:10:47.312Z,80.13
2017-02-16T00:12:00.466Z,79.93
2017-02-16T00:13:13.637Z,79.93
2017-02-16T00:14:26.797Z,79.55
2017-02-16T00:15:39.959Z,79.93
2017-02-16T00:16:53.414Z,79.55
2017-02-16T00:18:06.577Z,79.74
2017-02-16T00:19:32.626Z,79.74
2017-02-16T00:20:59.800Z,79.06
2017-02-16T00:22:12.947Z,78.81
2017-02-16T00:23:26.102Z,79.25
2017-02-16T00:24:52.702Z,79.35
2017-02-16T00:26:06.116Z,79.64
2017-02-16T00:27:19.287Z,78.97
2017-02-16T00:28:31.903Z,78.58
2017-02-16T00:29:45.056Z,78.71
2017-02-16T00:30:58.215Z,78.52
2017-02-16T00:32:11.373Z,78.03
2017-02-16T00:33:24.539Z,79
2017-02-16T00:34:37.708Z,78.23
2017-02-16T00:35:50.861Z,77.94
2017-02-16T00:37:04.072Z,78.33
2017-02-16T00:38:17.241Z,78.03
2017-02-16T00:39:29.841Z,78.13
2017-02-16T00:40:42.997Z,77.75
2017-02-16T00:41:56.145Z,77.75
2017-02-16T00:43:09.307Z,78.13
2017-02-16T00:44:21.933Z,78.03
2017-02-16T00:45:35.087Z,78.13
2017-02-16T00:46:48.236Z,78.33
2017-02-16T00:48:01.584Z,77.75
2017-02-16T00:49:14.190Z,77.84
2017-02-16T00:50:25.664Z,78.61
2017-02-16T00:51:38.816Z,78.42
2017-02-16T00:52:51.966Z,78.23
2017-02-16T00:54:05.326Z,78.91
2017-02-16T00:55:18.507Z,78.71
2017-02-16T00:56:31.678Z,78.71
2017-02-16T00:57:44.853Z,79
2017-02-16T00:58:58.021Z,79
2017-02-16T01:00:11.173Z,78.71
2017-02-16T01:01:24.349Z,79.1
2017-02-16T01:02:37.529Z,78.13
2017-02-16T01:03:50.715Z,78.33
2017-02-16T01:05:04.075Z,77.55
2017-02-16T01:06:17.248Z,77.94
2017-02-16T01:07:44.437Z,77.45
2017-02-16T01:08:57.795Z,76.97
2017-02-16T01:10:10.414Z,77.06
2017-02-16T01:11:23.599Z,77.75
2017-02-16T01:12:36.773Z,77.06
2017-02-16T01:13:49.936Z,76.29
2017-02-16T01:15:03.089Z,76.29
2017-02-16T01:16:15.686Z,75.51
2017-02-16T01:17:28.891Z,75.32
2017-02-16T01:18:42.070Z,75.71
2017-02-16T01:19:55.256Z,76.19
2017-02-16T01:21:08.420Z,76.19
2017-02-16T01:22:21.026Z,75.9
2017-02-16T01:23:34.179Z,76.74
2017-02-16T01:24:47.331Z,76.45
2017-02-16T01:26:14.686Z,76.15
2017-02-16T01:27:26.713Z,76.74
2017-02-16T01:28:39.310Z,76.74
2017-02-16T01:29:52.485Z,76.35
2017-02-16T01:31:05.647Z,76.25
2017-02-16T01:32:18.808Z,76.25
2017-02-16T01:33:31.961Z,76.35
2017-02-16T01:34:59.117Z,76.15
2017-02-16T01:36:11.923Z,75.96
2017-02-16T01:37:24.531Z,76.39
2017-02-16T01:38:37.677Z,75.09
2017-02-16T01:39:50.857Z,75.28
2017-02-16T01:41:04.024Z,75.77
2017-02-16T01:42:17.404Z,75.61
2017-02-16T01:43:30.570Z,75.38
2017-02-16T01:44:43.715Z,75.19
2017-02-16T01:45:56.860Z,75.32
2017-02-16T01:47:10.035Z,75.67
2017-02-16T01:48:22.643Z,75.32
2017-02-16T01:49:35.839Z,75.48
2017-02-16T01:50:48.985Z,75.19
2017-02-16T01:52:01.584Z,75.61
2017-02-16T01:53:14.939Z,75.42
2017-02-16T01:54:28.097Z,75.23
2017-02-16T01:55:41.259Z,75.38
2017-02-16T01:56:54.419Z,75.61
2017-02-16T01:58:07.583Z,74.99
2017-02-16T01:59:19.629Z,75.19
2017-02-16T02:00:32.786Z,74.22
2017-02-16T02:01:45.942Z,74.22
2017-02-16T02:02:59.087Z,73.93
2017-02-16T02:04:12.444Z,74.06
2017-02-16T02:05:25.057Z,74.93
2017-02-16T02:06:38.225Z,74.6
2017-02-16T02:07:51.382Z,75.71
2017-02-16T02:09:04.550Z,74.64
2017-02-16T02:10:16.582Z,74.64
2017-02-16T02:11:29.183Z,74.7
2017-02-16T02:12:42.343Z,74.6
2017-02-16T02:14:09.147Z,74.64
2017-02-16T02:15:22.305Z,74.6
2017-02-16T02:16:35.476Z,75.03
2017-02-16T02:19:15.813Z,74.12
2017-02-16T02:20:28.962Z,74.51
2017-02-16T02:21:42.127Z,74.32
2017-02-16T02:22:55.291Z,74.32
2017-02-16T02:24:08.457Z,74.51
2017-02-16T02:25:20.696Z,74.32
2017-02-16T02:26:33.858Z,74.41
2017-02-16T02:27:47.005Z,74.32
2017-02-16T02:29:00.163Z,74.12
2017-02-16T02:30:13.549Z,73.44
2017-02-16T02:31:26.170Z,73.86
2017-02-16T02:32:39.339Z,73.64
2017-02-16T02:33:52.503Z,73.28
2017-02-16T02:35:05.654Z,72.8
2017-02-16T02:36:19.040Z,73.73
2017-02-16T02:37:32.189Z,73.64
2017-02-16T02:38:45.355Z,73.64
2017-02-16T02:39:58.529Z,73.54
2017-02-16T02:41:25.992Z,73.15
2017-02-16T02:42:39.153Z,73.15
2017-02-16T02:43:52.303Z,73.35
2017-02-16T02:45:05.477Z,73.05
2017-02-16T02:46:18.924Z,73.15
2017-02-16T02:47:32.102Z,72.99
2017-02-16T02:48:44.691Z,72.8
2017-02-16T02:49:57.847Z,72.8
2017-02-16T02:51:10.999Z,72.57
2017-02-16T02:52:24.159Z,72.77
2017-02-16T02:53:37.328Z,72.51
2017-02-16T02:54:50.487Z,72.8
2017-02-16T02:56:03.643Z,72.99
2017-02-16T02:57:16.464Z,73.54
2017-02-16T02:58:29.623Z,73.54
2017-02-16T02:59:42.782Z,73.93
2017-02-16T03:00:55.429Z,73.64
2017-02-16T03:02:08.741Z,73.44
2017-02-16T03:03:21.490Z,73.35
2017-02-16T03:04:34.782Z,73.64
2017-02-16T03:05:48.096Z,73.35
2017-02-16T03:07:01.413Z,73.54
2017-02-16T03:08:14.928Z,73.73
2017-02-16T03:09:28.221Z,74.02
2017-02-16T03:10:41.509Z,74.12
2017-02-16T03:11:54.801Z,74.32
2017-02-16T03:13:08.115Z,74.32
2017-02-16T03:14:35.119Z,74.32
2017-02-16T03:15:48.417Z,74.12
2017-02-16T03:17:01.728Z,74.12
2017-02-16T03:18:15.029Z,74.41
2017-02-16T03:19:28.318Z,74.51
2017-02-16T03:20:41.616Z,74.99
2017-02-16T03:22:08.893Z,75.19
2017-02-16T03:23:22.204Z,75.48
2017-02-16T03:24:35.488Z,75.28
2017-02-16T03:25:48.787Z,74.99
2017-02-16T03:27:02.073Z,75.28
2017-02-16T03:28:15.386Z,76.15
2017-02-16T03:29:28.979Z,75.96
2017-02-16T03:30:42.266Z,76.06
2017-02-16T03:31:55.557Z,77.32
2017-02-16T03:33:08.844Z,76.64
2017-02-16T03:34:21.572Z,77.32
2017-02-16T03:35:34.891Z,78
2017-02-16T03:36:48.210Z,78.38
2017-02-16T03:38:01.498Z,78.97
2017-02-16T03:39:14.238Z,78.54
2017-02-16T03:40:27.830Z,79.32
2017-02-16T03:41:41.126Z,79.41
2017-02-16T03:42:54.423Z,79.6
2017-02-16T03:44:07.712Z,80.19
2017-02-16T03:45:20.433Z,80.47
2017-02-16T03:46:33.718Z,80.67
2017-02-16T03:47:47.018Z,80.77
2017-02-16T03:49:00.309Z,80.09
2017-02-16T03:50:13.601Z,79.99
2017-02-16T03:51:27.091Z,80.47
2017-02-16T03:52:39.842Z,80.38
2017-02-16T03:53:53.142Z,80.67
2017-02-16T03:55:06.437Z,80.96
2017-02-16T03:56:33.914Z,80.77
2017-02-16T03:57:47.259Z,80.96
2017-02-16T03:59:00.555Z,80.67
2017-02-16T04:00:13.853Z,80.87
2017-02-16T04:01:27.450Z,81.83
2017-02-16T04:02:40.751Z,80.96
2017-02-16T04:03:54.039Z,79.7
2017-02-16T04:06:34.612Z,80.38
2017-02-16T04:07:47.894Z,80.67
2017-02-16T04:09:00.612Z,80.77
2017-02-16T04:10:13.909Z,79.32
2017-02-16T04:11:27.197Z,79.41
2017-02-16T04:12:40.696Z,79.9
2017-02-16T04:13:53.981Z,79.99
2017-02-16T04:15:06.711Z,80.19
2017-02-16T04:16:20.011Z,80.38
2017-02-16T04:17:33.518Z,80.19
2017-02-16T04:18:46.823Z,80.09
2017-02-16T04:20:00.130Z,80.67
2017-02-16T04:21:13.434Z,79.9
2017-02-16T04:22:26.731Z,79.9
2017-02-16T04:23:39.687Z,80.05
2017-02-16T04:25:06.982Z,80.47
2017-02-16T04:26:19.707Z,80.24
2017-02-16T04:27:32.999Z,80.05
2017-02-16T04:28:46.526Z,80.05
2017-02-16T04:29:59.822Z,79.66
2017-02-16T04:31:13.063Z,80.15
2017-02-16T04:32:40.227Z,79.95
2017-02-16T04:33:53.386Z,80.15
2017-02-16T04:35:06.536Z,80.15
2017-02-16T04:36:19.681Z,80.63
2017-02-16T04:37:32.847Z,81.89
2017-02-16T04:38:46.204Z,81.89
2017-02-16T04:41:26.561Z,82.47
2017-02-16T04:42:39.940Z,83.15
2017-02-16T04:43:53.090Z,83.63
2017-02-16T04:45:06.258Z,83.63
2017-02-16T04:46:18.868Z,83.25
2017-02-16T04:47:31.464Z,83.53
2017-02-16T04:48:44.625Z,83.44
2017-02-16T04:49:57.774Z,83.25
2017-02-16T04:51:10.365Z,83.25
2017-02-16T04:52:23.544Z,82.76
2017-02-16T04:53:37.025Z,81.79
2017-02-16T04:54:50.172Z,81.21
2017-02-16T04:56:03.331Z,80.44
2017-02-16T04:57:29.925Z,80.05
2017-02-16T04:58:44.095Z,80.63
2017-02-16T04:59:57.269Z,80.54
2017-02-16T05:01:09.300Z,79.95
2017-02-16T05:02:22.465Z,80.34
2017-02-16T05:03:35.623Z,80.24
2017-02-16T05:04:48.990Z,80.34
2017-02-16T05:06:02.155Z,80.34
2017-02-16T05:07:14.754Z,80.44
2017-02-16T05:08:41.901Z,80.82
2017-02-16T05:09:55.069Z,81.3
2017-02-16T05:11:07.679Z,81.7
2017-02-16T05:12:19.742Z,82.08
2017-02-16T05:13:32.916Z,82.08
2017-02-16T05:14:46.370Z,81.7
2017-02-16T05:15:59.518Z,82.28
2017-02-16T05:17:12.686Z,82.86
2017-02-16T05:18:25.852Z,82.76
2017-02-16T05:19:39.031Z,82.57
2017-02-16T05:20:52.179Z,82.47
2017-02-16T05:22:05.333Z,83.63
2017-02-16T05:23:17.380Z,83.44
2017-02-16T05:24:30.549Z,83.34
2017-02-16T05:25:43.155Z,83.83
2017-02-16T05:26:56.326Z,83.2
2017-02-16T05:28:09.497Z,83.53
2017-02-16T05:30:50.193Z,83.59
2017-02-16T05:32:03.365Z,83.25
2017-02-16T05:33:16.548Z,83.49
2017-02-16T05:34:29.711Z,83.3
2017-02-16T05:35:42.876Z,82.91
2017-02-16T05:36:56.056Z,82.43
2017-02-16T05:38:09.223Z,82.23
2017-02-16T05:39:22.375Z,82.53
2017-02-16T05:40:35.552Z,83.4
2017-02-16T05:41:48.478Z,83.59
2017-02-16T05:43:01.655Z,84.75
2017-02-16T05:44:14.823Z,85.91
2017-02-16T05:45:27.968Z,86.3
2017-02-16T05:46:40.573Z,86.78
2017-02-16T05:47:53.918Z,86.59
2017-02-16T05:49:07.081Z,86.59
2017-02-16T05:50:19.676Z,86.78
2017-02-16T05:51:32.837Z,86.69
2017-02-16T05:52:46.204Z,86.69
2017-02-16T05:53:58.790Z,86.59
2017-02-16T05:55:11.411Z,86.4
2017-02-16T05:57:51.212Z,86.2
2017-02-16T05:59:04.369Z,86.69
2017-02-16T06:00:17.535Z,85.91
2017-02-16T06:01:30.741Z,86.01
2017-02-16T06:02:43.468Z,85.52
2017-02-16T06:03:57.088Z,85.52
2017-02-16T06:05:10.384Z,85.62
2017-02-16T06:06:23.098Z,85.52
2017-02-16T06:07:36.386Z,85.72
2017-02-16T06:08:49.672Z,86.69
2017-02-16T06:10:16.950Z,86.98
2017-02-16T06:11:30.238Z,87.46
2017-02-16T06:12:43.521Z,87.65
2017-02-16T06:13:56.540Z,88.13
2017-02-16T06:15:09.284Z,87.75
2017-02-16T06:16:22.595Z,87.85
2017-02-16T06:17:35.341Z,88.71
2017-02-16T06:18:48.056Z,88.53
2017-02-16T06:20:01.544Z,88.53
2017-02-16T06:21:14.281Z,88.33
2017-02-16T06:22:27.585Z,89.29
2017-02-16T06:23:40.880Z,89.64
2017-02-16T06:24:54.469Z,89.54
2017-02-16T06:26:07.788Z,89.93
2017-02-16T06:27:21.076Z,89.64
2017-02-16T06:28:34.400Z,89.54
2017-02-16T06:29:47.682Z,89.64
2017-02-16T06:31:00.969Z,89.54
2017-02-16T06:32:14.262Z,89.54
2017-02-16T06:33:27.551Z,89.93
2017-02-16T06:34:40.267Z,89.15
2017-02-16T06:35:53.859Z,89.06
2017-02-16T06:37:07.154Z,89.35
2017-02-16T06:38:20.443Z,89.06
2017-02-16T06:39:33.741Z,88.87
2017-02-16T06:41:01.028Z,89.35
2017-02-16T06:42:14.326Z,89.15
2017-02-16T06:43:27.638Z,89.06
2017-02-16T06:44:40.371Z,89.25
2017-02-16T06:45:53.642Z,89.15
2017-02-16T06:47:07.097Z,89.06
2017-02-16T06:48:34.257Z,89.25
2017-02-16T06:51:14.585Z,89.15
2017-02-16T06:52:27.751Z,89.25
2017-02-16T06:53:40.353Z,89.35
2017-02-16T06:54:53.520Z,89.25
2017-02-16T06:56:06.686Z,89.25
2017-02-16T06:57:19.850Z,89.06
2017-02-16T06:58:32.446Z,88.96
2017-02-16T06:59:45.053Z,88.48
2017-02-16T07:00:58.228Z,88.57
2017-02-16T07:02:25.597Z,88.57
2017-02-16T07:03:38.204Z,88.77
2017-02-16T07:04:51.371Z,88.57
2017-02-16T07:06:04.544Z,88.48
2017-02-16T07:07:17.743Z,88.77
2017-02-16T07:08:31.210Z,88.77
2017-02-16T07:09:44.378Z,88.77
2017-02-16T07:10:57.555Z,88.87
2017-02-16T07:12:10.715Z,88.77
2017-02-16T07:13:23.512Z,89.25
2017-02-16T07:14:36.671Z,88.77
2017-02-16T07:15:49.267Z,89.35
2017-02-16T07:17:02.442Z,89.15
2017-02-16T07:19:42.390Z,88.57
2017-02-16T07:20:55.563Z,88.77
2017-02-16T07:22:08.724Z,88.48
2017-02-16T07:23:21.874Z,87.71
2017-02-16T07:24:34.673Z,87.03
2017-02-16T07:25:47.847Z,87.32
2017-02-16T07:27:01.007Z,86.45
2017-02-16T07:28:14.170Z,86.16
2017-02-16T07:29:27.340Z,86.45
2017-02-16T07:30:40.792Z,86.16
2017-02-16T07:31:53.931Z,86.06
2017-02-16T07:33:07.084Z,86.55
2017-02-16T07:34:20.239Z,86.83
2017-02-16T07:35:33.392Z,87.81
2017-02-16T07:36:46.539Z,88.67
2017-02-16T07:37:59.700Z,88.87
2017-02-16T07:39:12.290Z,88.87
2017-02-16T07:40:25.450Z,89.06
2017-02-16T07:41:38.896Z,89.06
2017-02-16T07:42:50.943Z,89.74
2017-02-16T07:44:04.095Z,89.64
2017-02-16T07:45:16.142Z,89.54
2017-02-16T07:46:29.612Z,89.93
2017-02-16T07:47:42.784Z,89.69
2017-02-16T07:48:55.947Z,89.59
2017-02-16T07:50:09.143Z,89.69
2017-02-16T07:51:21.731Z,89.59
2017-02-16T07:52:34.624Z,89.69
2017-02-16T07:53:47.803Z,89.98
2017-02-16T07:55:00.970Z,90.08
2017-02-16T07:56:14.135Z,90.17
2017-02-16T07:57:41.288Z,90.08
2017-02-16T07:58:54.458Z,89.98
2017-02-16T08:00:06.486Z,89.69
2017-02-16T08:01:19.091Z,90.37
2017-02-16T08:02:31.681Z,89.89
2017-02-16T08:03:44.835Z,89.79
2017-02-16T08:04:58.005Z,90.08
2017-02-16T08:06:10.629Z,90.17
2017-02-16T08:07:23.788Z,90.17
2017-02-16T08:08:37.262Z,90.17
2017-02-16T08:09:50.420Z,89.31
2017-02-16T08:11:17.016Z,90.56
2017-02-16T08:12:30.174Z,90.75
2017-02-16T08:13:43.640Z,91.14
2017-02-16T08:14:56.794Z,90.95
2017-02-16T08:16:09.437Z,91.14
2017-02-16T08:17:22.156Z,91.14
2017-02-16T08:18:35.657Z,91.72
2017-02-16T08:19:48.946Z,91.53
2017-02-16T08:21:02.242Z,91.63
2017-02-16T08:22:14.973Z,91.24
2017-02-16T08:23:28.275Z,91.33
2017-02-16T08:24:55.747Z,91.19
2017-02-16T08:26:08.495Z,91.63
2017-02-16T08:27:21.232Z,91.43
2017-02-16T08:28:34.530Z,91.14
2017-02-16T08:29:48.127Z,90.85
2017-02-16T08:31:00.849Z,90.37
2017-02-16T08:32:14.145Z,90.85
2017-02-16T08:33:27.466Z,91.29
2017-02-16T08:34:40.748Z,90.95
2017-02-16T08:35:54.037Z,90.47
2017-02-16T08:37:07.368Z,90.08
2017-02-16T08:38:20.104Z,90.47
2017-02-16T08:39:33.437Z,90.85
2017-02-16T08:40:47.052Z,91.33
2017-02-16T08:42:00.351Z,91.33
2017-02-16T08:43:12.515Z,91.91
2017-02-16T08:44:25.796Z,91.82
2017-02-16T08:45:39.397Z,91.63
2017-02-16T08:46:52.687Z,91.29
2017-02-16T08:48:05.983Z,91.67
2017-02-16T08:49:19.271Z,91.67
2017-02-16T08:50:32.572Z,91.77
2017-02-16T08:51:45.608Z,91.19
2017-02-16T08:53:12.873Z,92.07
2017-02-16T08:54:26.193Z,91.97
2017-02-16T08:55:39.783Z,91.87
2017-02-16T08:57:06.483Z,91.67
2017-02-16T08:58:19.778Z,91.77
2017-02-16T08:59:33.086Z,91.19
2017-02-16T09:00:46.389Z,91.58
2017-02-16T09:01:59.674Z,91.67
2017-02-16T09:03:12.390Z,90.37
2017-02-16T09:04:25.704Z,90.08
2017-02-16T09:05:39.005Z,90.75
2017-02-16T09:06:52.525Z,90.27
2017-02-16T09:08:05.821Z,90.37
2017-02-16T09:09:33.098Z,90.27
2017-02-16T09:10:45.811Z,89.5
2017-02-16T09:11:59.111Z,89.59
2017-02-16T09:13:12.413Z,90.08
2017-02-16T09:14:25.744Z,89.89
2017-02-16T09:15:39.036Z,89.4
2017-02-16T09:17:06.511Z,89.5
2017-02-16T09:18:19.819Z,89.98
2017-02-16T09:19:33.141Z,89.4
2017-02-16T09:21:00.738Z,90.17
2017-02-16T09:22:14.042Z,89.4
2017-02-16T09:23:27.325Z,89.89
2017-02-16T09:24:40.614Z,89.5
2017-02-16T09:25:53.901Z,89.59
2017-02-16T09:27:07.422Z,89.79
2017-02-16T09:28:20.151Z,89.5
2017-02-16T09:29:32.898Z,88.92
2017-02-16T09:30:46.213Z,89.79
2017-02-16T09:31:59.706Z,89.59
2017-02-16T09:33:12.436Z,89.5
2017-02-16T09:34:25.777Z,89.5
2017-02-16T09:35:39.060Z,89.31
2017-02-16T09:36:52.346Z,89.89
2017-02-16T09:38:05.075Z,89.31
2017-02-16T09:39:17.221Z,89.06
2017-02-16T09:40:30.509Z,88.87
2017-02-16T09:43:11.094Z,87.9
2017-02-16T09:44:24.391Z,88.09
2017-02-16T09:45:37.649Z,87.99
2017-02-16T09:46:49.696Z,88.09
2017-02-16T09:49:30.047Z,87.41
2017-02-16T09:50:43.230Z,86.93
2017-02-16T09:51:56.395Z,86.74
2017-02-16T09:53:09.180Z,86.74
2017-02-16T09:54:21.774Z,86.74
2017-02-16T09:55:34.926Z,86.06
2017-02-16T09:56:48.076Z,86.78
2017-02-16T09:58:14.983Z,85.52
2017-02-16T09:59:27.596Z,85.58
2017-02-16T10:00:40.778Z,85.58
2017-02-16T10:01:53.944Z,85.52
2017-02-16T10:03:07.093Z,86.06
2017-02-16T10:04:19.981Z,85.42
2017-02-16T10:05:33.138Z,85.52
2017-02-16T10:06:46.296Z,85.24
2017-02-16T10:07:59.553Z,85.19
2017-02-16T10:09:12.360Z,84.61
2017-02-16T10:10:24.959Z,84.75
2017-02-16T10:11:38.126Z,85.33
2017-02-16T10:12:51.302Z,85.14
2017-02-16T10:14:04.473Z,84.84
2017-02-16T10:15:16.726Z,84.84
2017-02-16T10:16:29.893Z,84.84
2017-02-16T10:17:42.502Z,84.66
2017-02-16T10:18:55.681Z,84.94
2017-02-16T10:20:07.741Z,84.75
2017-02-16T10:21:20.894Z,84.66
2017-02-16T10:22:34.079Z,84.66
2017-02-16T10:24:16.389Z,84.56
2017-02-16T10:25:29.553Z,84.94
2017-02-16T10:26:42.726Z,84.31
2017-02-16T10:27:55.905Z,84.27
2017-02-16T10:29:09.070Z,83.83
2017-02-16T10:30:22.251Z,83.53
2017-02-16T10:31:35.059Z,83.25
2017-02-16T10:32:48.243Z,83.63
2017-02-16T10:34:01.396Z,83.63
2017-02-16T10:35:14.000Z,83.53
2017-02-16T10:36:27.468Z,83.15
2017-02-16T10:37:40.628Z,83.34
2017-02-16T10:38:53.255Z,82.28
2017-02-16T10:40:05.867Z,82.6
2017-02-16T10:41:19.030Z,82.08
2017-02-16T10:42:46.197Z,82.08
2017-02-16T10:43:59.379Z,82.9
2017-02-16T10:45:11.975Z,82.18
2017-02-16T10:46:24.572Z,82.37
2017-02-16T10:47:38.033Z,82.51
2017-02-16T10:48:50.642Z,81.64
2017-02-16T10:50:03.823Z,81.15
2017-02-16T10:51:16.996Z,80.67
2017-02-16T10:52:30.154Z,80.57
2017-02-16T10:53:43.332Z,80.57
2017-02-16T10:54:56.521Z,79.7
2017-02-16T10:56:09.124Z,80.19
2017-02-16T10:57:21.790Z,80.19
2017-02-16T10:58:35.035Z,79.7
2017-02-16T11:01:14.328Z,78.34
2017-02-16T11:02:27.122Z,78.92
2017-02-16T11:03:40.406Z,78.74
2017-02-16T11:04:53.742Z,78.34
2017-02-16T11:06:07.103Z,78.05
2017-02-16T11:07:20.439Z,78.09
2017-02-16T11:08:33.607Z,77.67
2017-02-16T11:09:46.969Z,77.67
2017-02-16T11:10:59.561Z,77.86
2017-02-16T11:12:12.739Z,77.37
2017-02-16T11:13:25.890Z,77.8
2017-02-16T11:14:39.046Z,77.8
2017-02-16T11:15:52.211Z,78
2017-02-16T11:17:05.367Z,77.8
2017-02-16T11:18:17.412Z,78
2017-02-16T11:19:30.584Z,76.64
2017-02-16T11:20:44.064Z,76.93
2017-02-16T11:21:57.244Z,75.38
2017-02-16T11:23:10.420Z,75.57
2017-02-16T11:24:37.006Z,75.61
2017-02-16T11:25:49.837Z,75.71
2017-02-16T11:27:02.995Z,75.42
2017-02-16T11:28:16.171Z,75.13
2017-02-16T11:29:29.345Z,75.23
2017-02-16T11:30:42.713Z,74.26
2017-02-16T11:31:55.986Z,74.26
2017-02-16T11:33:09.248Z,74.64
2017-02-16T11:34:21.918Z,74.45
2017-02-16T11:35:35.122Z,73.48
2017-02-16T11:36:48.681Z,73.67
2017-02-16T11:38:01.958Z,74.26
2017-02-16T11:39:15.294Z,74.35
2017-02-16T11:40:28.108Z,73.9
2017-02-16T11:41:41.460Z,73.52
2017-02-16T11:42:54.077Z,74.39
2017-02-16T11:44:07.226Z,74
2017-02-16T11:45:34.392Z,74.29
2017-02-16T11:46:47.859Z,72.93
2017-02-16T11:48:00.446Z,72.74
2017-02-16T11:49:13.054Z,73.22
2017-02-16T11:50:26.200Z,72.55
2017-02-16T11:51:39.359Z,72.06
2017-02-16T11:52:52.511Z,72.35
2017-02-16T11:55:32.271Z,72.16
2017-02-16T11:56:45.432Z,72.06
2017-02-16T11:57:58.233Z,71.58
2017-02-16T11:59:10.861Z,71.8
2017-02-16T12:01:50.083Z,71.12
2017-02-16T12:03:03.275Z,71.03
2017-02-16T12:04:15.872Z,71.22
2017-02-16T12:05:29.028Z,70.73
2017-02-16T12:06:42.190Z,70.45
2017-02-16T12:07:55.090Z,69.96
2017-02-16T12:09:08.236Z,69.96
2017-02-16T12:10:20.303Z,69.48
2017-02-16T12:11:33.476Z,69.96
2017-02-16T12:12:46.650Z,69.18
2017-02-16T12:13:59.256Z,69.67
2017-02-16T12:15:11.879Z,69.9
2017-02-16T12:16:25.026Z,69.9
2017-02-16T12:17:38.175Z,69.6
2017-02-16T12:18:51.323Z,69.51
2017-02-16T12:20:04.485Z,69.22
2017-02-16T12:21:17.681Z,69.41
2017-02-16T12:22:30.870Z,69.32
2017-02-16T12:23:44.054Z,68.05
2017-02-16T12:24:57.216Z,68.28
2017-02-16T12:26:10.399Z,68.08
2017-02-16T12:27:23.035Z,67.99
2017-02-16T12:28:36.222Z,67.5
2017-02-16T12:29:49.635Z,66.53
2017-02-16T12:31:02.823Z,66.53
2017-02-16T12:33:41.523Z,66.76
2017-02-16T12:34:54.713Z,65.98
2017-02-16T12:36:07.965Z,66.47
2017-02-16T12:37:21.198Z,65.3
2017-02-16T12:38:34.512Z,65.04
2017-02-16T12:39:47.928Z,64.46
2017-02-16T12:41:00.715Z,63.42
2017-02-16T12:42:12.914Z,63.06
2017-02-16T12:43:25.500Z,61.8
2017-02-16T12:44:38.648Z,60.85
2017-02-16T12:46:19.306Z,60.27
2017-02-16T12:47:32.063Z,60.78
2017-02-16T12:48:45.555Z,60.27
2017-02-16T12:49:58.867Z,59.62
2017-02-16T12:51:12.161Z,59.81
2017-02-16T12:52:25.458Z,60.39
2017-02-16T12:53:38.751Z,59.64
2017-02-16T12:54:52.036Z,58.77
2017-02-16T12:56:04.947Z,58.7
2017-02-16T12:57:32.214Z,57.65
2017-02-16T12:58:45.497Z,57.65
2017-02-16T13:00:12.764Z,56.41
2017-02-16T13:01:25.501Z,56.32
2017-02-16T13:02:38.815Z,55.63
2017-02-16T13:03:52.107Z,55.83
2017-02-16T13:05:04.816Z,56.51
2017-02-16T13:06:18.106Z,56.51
2017-02-16T13:07:30.815Z,55.63
2017-02-16T13:08:44.100Z,55.18
2017-02-16T13:09:57.399Z,56.02
2017-02-16T13:11:24.680Z,55.54
2017-02-16T13:12:37.980Z,55.86
2017-02-16T13:13:51.280Z,55.47
2017-02-16T13:15:04.593Z,55.57
2017-02-16T13:16:17.321Z,55.57
2017-02-16T13:18:57.508Z,55.2
2017-02-16T13:20:10.797Z,55.49
2017-02-16T13:21:37.684Z,55.49
2017-02-16T13:22:51.015Z,55.2
2017-02-16T13:24:04.314Z,54.83
2017-02-16T13:25:16.455Z,54.35
2017-02-16T13:26:29.779Z,54.05
2017-02-16T13:27:57.562Z,52.88
2017-02-16T13:29:10.299Z,53.88
2017-02-16T13:30:24.342Z,53.78
2017-02-16T13:31:37.494Z,52.12
2017-02-16T13:32:50.642Z,51.17
2017-02-16T13:34:03.815Z,50.42
2017-02-16T13:35:16.408Z,50.42
2017-02-16T13:36:29.574Z,50.12
2017-02-16T13:37:42.162Z,49.82
2017-02-16T13:38:55.330Z,50.02
2017-02-16T13:40:08.480Z,49.92
2017-02-16T13:41:21.620Z,50.61
2017-02-16T13:42:34.775Z,50.61
2017-02-16T13:43:47.914Z,49.43
2017-02-16T13:45:01.092Z,49.95
2017-02-16T13:46:14.233Z,48.38
2017-02-16T13:47:27.366Z,48.3
2017-02-16T13:48:40.524Z,48.8
2017-02-16T13:49:53.676Z,48.3
2017-02-16T13:51:20.842Z,46.66
2017-02-16T13:52:33.996Z,46.27
2017-02-16T13:53:47.145Z,46.47
2017-02-16T13:54:59.736Z,47.25
2017-02-16T13:56:26.904Z,47.72
2017-02-16T13:57:40.057Z,48.21
2017-02-16T13:58:53.203Z,47.72
2017-02-16T14:00:20.348Z,47.72
2017-02-16T14:01:33.503Z,48.41
2017-02-16T14:02:46.675Z,48.68
2017-02-16T14:03:59.819Z,49.36
2017-02-16T14:05:12.629Z,49.36
2017-02-16T14:06:25.810Z,49.55
2017-02-16T14:07:38.952Z,48.68
2017-02-16T14:08:52.111Z,47.62
2017-02-16T14:10:05.461Z,47.72
2017-02-16T14:11:18.631Z,48.3
2017-02-16T14:12:31.219Z,48.6
2017-02-16T14:13:44.402Z,48.11
2017-02-16T14:14:57.550Z,49.19
2017-02-16T14:16:10.727Z,48.9
2017-02-16T14:17:23.927Z,46.08
2017-02-16T14:18:37.086Z,45.21
2017-02-16T14:19:50.242Z,44.84
2017-02-16T14:21:03.393Z,45.04
2017-02-16T14:22:16.540Z,45.73
2017-02-16T14:23:29.720Z,46.12
2017-02-16T14:24:42.353Z,45.92
2017-02-16T14:25:55.153Z,47.17
2017-02-16T14:27:08.303Z,46.39
2017-02-16T14:28:21.455Z,45.43
2017-02-16T14:29:34.605Z,45.14
2017-02-16T14:32:14.353Z,44.67
2017-02-16T14:33:25.273Z,45.63
2017-02-16T14:34:37.902Z,46.3
2017-02-16T14:35:51.070Z,46.66
2017-02-16T14:37:04.438Z,45.21
2017-02-16T14:38:31.604Z,45.04
2017-02-16T14:39:44.773Z,45.24
2017-02-16T14:40:57.928Z,45.16
2017-02-16T14:42:10.516Z,45.85
2017-02-16T14:44:50.818Z,46.22
2017-02-16T14:46:03.964Z,47.37
2017-02-16T14:47:16.554Z,47.17
2017-02-16T14:48:29.734Z,47.77
2017-02-16T14:49:42.372Z,47.94
2017-02-16T14:50:54.951Z,49.21
2017-02-16T14:52:08.113Z,48.8
2017-02-16T14:53:21.467Z,49.48
2017-02-16T14:54:35.041Z,50.04
2017-02-16T14:55:48.203Z,50.22
2017-02-16T14:57:00.791Z,50.59
2017-02-16T14:58:13.596Z,51.07
2017-02-16T14:59:26.739Z,50.78
2017-02-16T15:00:39.885Z,50.59
2017-02-16T15:01:53.034Z,50.2
2017-02-16T15:03:06.200Z,50.1
2017-02-16T15:04:19.547Z,50.59
2017-02-16T15:05:32.717Z,50.1
2017-02-16T15:06:45.855Z,50.81
2017-02-16T15:07:59.004Z,49.33
2017-02-16T15:09:12.367Z,48.77
2017-02-16T15:10:25.513Z,48.19
2017-02-16T15:11:38.095Z,47.42
2017-02-16T15:12:51.260Z,46.17
2017-02-16T15:14:03.863Z,45.49
2017-02-16T15:15:15.896Z,45.61
2017-02-16T15:16:29.051Z,45.8
2017-02-16T15:17:42.198Z,45.02
2017-02-16T15:19:09.362Z,45.41
2017-02-16T15:20:22.525Z,45.31
2017-02-16T15:21:35.724Z,45.43
2017-02-16T15:22:48.866Z,44.84
2017-02-16T15:24:02.035Z,43.88
2017-02-16T15:25:14.073Z,44.65
2017-02-16T15:26:26.659Z,44.13
2017-02-16T15:27:39.263Z,44.53
2017-02-16T15:28:52.416Z,44.02
2017-02-16T15:30:05.574Z,44.12
2017-02-16T15:31:17.094Z,44.6
2017-02-16T15:32:29.683Z,45.19
2017-02-16T15:33:42.836Z,45.95
2017-02-16T15:34:55.991Z,46.52
2017-02-16T15:36:09.166Z,46.81
2017-02-16T15:37:22.335Z,46.91
2017-02-16T15:38:35.519Z,47.5
2017-02-16T15:39:48.709Z,47.4
2017-02-16T15:41:01.883Z,47.3
2017-02-16T15:42:14.528Z,46.54
2017-02-16T15:43:27.689Z,46.15
2017-02-16T15:44:54.864Z,46.52
2017-02-16T15:46:08.027Z,46.91
2017-02-16T15:47:21.198Z,47.38
2017-02-16T15:48:34.371Z,47.38
2017-02-16T15:49:47.546Z,47.4
2017-02-16T15:51:00.687Z,47.5
2017-02-16T15:52:14.044Z,47.6
2017-02-16T15:53:27.204Z,46.74
2017-02-16T15:54:40.343Z,46.54
2017-02-16T15:55:53.530Z,46.64
2017-02-16T15:57:06.727Z,46.62
2017-02-16T15:58:19.888Z,46.33
2017-02-16T15:59:33.046Z,46.52
2017-02-16T16:01:00.887Z,46.98
2017-02-16T16:02:27.695Z,47.77
2017-02-16T16:03:40.880Z,47.87
2017-02-16T16:04:53.491Z,47.47
2017-02-16T16:06:06.125Z,47.4
2017-02-16T16:07:18.229Z,47.47
2017-02-16T16:08:31.706Z,47.38
2017-02-16T16:09:44.872Z,47.57
2017-02-16T16:10:57.490Z,47.47
2017-02-16T16:12:10.133Z,46.59
2017-02-16T16:13:37.375Z,47.4
2017-02-16T16:14:50.093Z,46.42
2017-02-16T16:16:03.355Z,46.91
2017-02-16T16:17:15.479Z,47.3
2017-02-16T16:18:28.774Z,46.91
2017-02-16T16:19:42.048Z,47.89